createdAt,value
2023-04-13T00:00:53.647Z,73.60
2023-04-13T00:04:01.466Z,73.61
2023-04-13T00:07:10.821Z,73.57
2023-04-13T00:10:17.029Z,73.57
2023-04-13T00:13:23.260Z,73.62
2023-04-13T00:16:33.342Z,73.66
2023-04-13T00:19:40.157Z,73.67
2023-04-13T00:22:47.181Z,73.62
2023-04-13T00:25:54.550Z,73.52
2023-04-13T00:29:02.101Z,73.48
2023-04-13T00:32:08.608Z,73.51
2023-04-13T00:35:15.584Z,73.40
2023-04-13T00:38:22.224Z,73.26
2023-04-13T00:41:28.492Z,73.38
2023-04-13T00:44:35.819Z,73.40
2023-04-13T00:47:51.397Z,73.39
2023-04-13T00:50:58.641Z,73.43
2023-04-13T00:54:04.925Z,73.39
2023-04-13T00:57:12.646Z,73.35
2023-04-13T01:00:23.567Z,73.33
2023-04-13T01:03:30.436Z,73.40
2023-04-13T01:06:49.357Z,73.47
2023-04-13T01:10:09.531Z,73.46
2023-04-13T01:13:32.994Z,73.41
2023-04-13T01:16:43.084Z,73.42
2023-04-13T01:19:57.696Z,73.46
2023-04-13T01:23:10.795Z,73.48
2023-04-13T01:26:18.646Z,73.50
2023-04-13T01:29:24.928Z,73.49
2023-04-13T01:32:31.117Z,73.44
2023-04-13T01:35:37.188Z,73.37
2023-04-13T01:38:45.013Z,73.37
2023-04-13T01:41:52.332Z,73.35
2023-04-13T01:44:59.803Z,73.38
2023-04-13T01:48:45.990Z,73.40
2023-04-13T01:52:02.187Z,73.40
2023-04-13T01:55:08.923Z,73.25
2023-04-13T01:58:18.127Z,73.21
2023-04-13T02:01:24.417Z,73.32
2023-04-13T02:04:31.913Z,73.47
2023-04-13T02:07:39.884Z,73.52
2023-04-13T02:10:51.004Z,73.46
2023-04-13T02:14:00.375Z,73.44
2023-04-13T02:17:07.915Z,73.44
2023-04-13T02:20:15.802Z,73.42
2023-04-13T02:23:22.445Z,73.41
2023-04-13T02:26:29.389Z,73.40
2023-04-13T02:29:36.243Z,73.42
2023-04-13T02:32:42.466Z,73.33
2023-04-13T02:35:49.954Z,73.35
2023-04-13T02:38:56.132Z,73.36
2023-04-13T02:42:05.429Z,73.44
2023-04-13T02:45:12.128Z,73.43
2023-04-13T02:48:20.946Z,73.41
2023-04-13T02:51:28.425Z,73.44
2023-04-13T02:54:33.698Z,73.30
2023-04-13T02:57:40.744Z,73.43
2023-04-13T03:00:46.927Z,73.60
2023-04-13T03:03:55.070Z,73.69
2023-04-13T03:07:01.711Z,73.71
2023-04-13T03:10:11.299Z,73.69
2023-04-13T03:13:16.725Z,73.75
2023-04-13T03:16:25.627Z,73.74
2023-04-13T03:19:32.095Z,73.81
2023-04-13T03:22:31.133Z,73.88
2023-04-13T03:25:37.841Z,73.91
2023-04-13T03:28:45.443Z,73.95
2023-04-13T03:31:52.770Z,73.93
2023-04-13T03:35:00.770Z,73.91
2023-04-13T03:38:07.483Z,73.92
2023-04-13T03:41:16.618Z,73.93
2023-04-13T03:44:23.555Z,73.94
2023-04-13T03:47:31.118Z,74.04
2023-04-13T03:50:42.438Z,74.09
2023-04-13T03:53:52.093Z,74.07
2023-04-13T03:56:59.547Z,74.12
2023-04-13T04:00:06.536Z,74.14
2023-04-13T04:03:25.729Z,74.13
2023-04-13T04:06:38.449Z,74.15
2023-04-13T04:09:47.384Z,74.09
2023-04-13T04:12:59.181Z,74.17
2023-04-13T04:16:07.242Z,74.26
2023-04-13T04:19:17.928Z,74.30
2023-04-13T04:22:24.818Z,74.29
2023-04-13T04:25:30.520Z,74.35
2023-04-13T04:28:41.358Z,74.39
2023-04-13T04:31:50.994Z,74.48
2023-04-13T04:34:58.671Z,74.51
2023-04-13T04:38:06.109Z,74.53
2023-04-13T04:41:12.419Z,74.52
2023-04-13T04:44:20.238Z,74.46
2023-04-13T04:47:31.329Z,74.46
2023-04-13T04:50:40.562Z,74.53
2023-04-13T04:53:48.186Z,74.56
2023-04-13T04:56:54.449Z,74.61
2023-04-13T05:00:01.375Z,74.66
2023-04-13T05:03:08.415Z,74.66
2023-04-13T05:06:16.740Z,74.50
2023-04-13T05:09:25.578Z,74.53
2023-04-13T05:12:30.934Z,74.59
2023-04-13T05:15:37.050Z,74.60
2023-04-13T05:18:44.336Z,74.62
2023-04-13T05:21:55.942Z,74.62
2023-04-13T05:25:05.076Z,74.63
2023-04-13T05:28:10.434Z,74.60
2023-04-13T05:31:18.358Z,74.64
2023-04-13T05:34:25.842Z,74.63
2023-04-13T05:37:37.345Z,74.68
2023-04-13T05:40:45.797Z,74.69
2023-04-13T05:43:46.417Z,74.73
2023-04-13T05:46:52.945Z,74.69
2023-04-13T05:50:00.378Z,74.70
2023-04-13T05:53:08.926Z,74.70
2023-04-13T05:56:24.682Z,74.71
2023-04-13T05:59:30.591Z,74.81
2023-04-13T06:02:38.602Z,74.81
2023-04-13T06:05:45.903Z,74.87
2023-04-13T06:08:52.501Z,74.99
2023-04-13T06:12:00.022Z,74.89
2023-04-13T06:15:20.000Z,74.94
2023-04-13T06:18:28.367Z,75.05
2023-04-13T06:21:37.199Z,75.04
2023-04-13T06:24:46.193Z,75.12
2023-04-13T06:27:53.237Z,75.12
2023-04-13T06:30:59.804Z,75.14
2023-04-13T06:34:06.207Z,75.15
2023-04-13T06:37:12.870Z,75.22
2023-04-13T06:40:24.587Z,75.20
2023-04-13T06:43:34.286Z,75.24
2023-04-13T06:46:49.496Z,75.22
2023-04-13T06:49:57.244Z,75.20
2023-04-13T06:53:04.234Z,75.09
2023-04-13T06:56:12.769Z,75.12
2023-04-13T06:59:19.737Z,75.18
2023-04-13T07:02:24.991Z,75.24
2023-04-13T07:05:31.159Z,75.17
2023-04-13T07:08:38.917Z,75.02
2023-04-13T07:11:45.531Z,74.93
2023-04-13T07:14:53.854Z,74.76
2023-04-13T07:18:02.767Z,74.56
2023-04-13T07:21:12.500Z,74.50
2023-04-13T07:24:20.961Z,74.36
2023-04-13T07:27:28.059Z,74.19
2023-04-13T07:30:34.292Z,74.05
2023-04-13T07:33:39.716Z,73.81
2023-04-13T07:36:49.393Z,73.79
2023-04-13T07:39:56.022Z,73.73
2023-04-13T07:43:07.366Z,73.79
2023-04-13T07:46:14.160Z,73.80
2023-04-13T07:49:22.728Z,73.54
2023-04-13T07:52:30.105Z,73.55
2023-04-13T07:55:36.005Z,73.27
2023-04-13T07:58:42.656Z,73.26
2023-04-13T08:01:49.531Z,73.16
2023-04-13T08:04:56.309Z,73.29
2023-04-13T08:08:03.318Z,73.12
2023-04-13T08:11:10.446Z,73.03
2023-04-13T08:14:18.206Z,72.98
2023-04-13T08:17:24.124Z,72.96
2023-04-13T08:20:31.880Z,72.87
2023-04-13T08:23:38.102Z,72.82
2023-04-13T08:26:45.770Z,72.83
2023-04-13T08:29:54.198Z,72.44
2023-04-13T08:33:01.818Z,72.40
2023-04-13T08:36:10.742Z,72.50
2023-04-13T08:41:52.565Z,72.26
2023-04-13T08:45:00.395Z,72.18
2023-04-13T08:48:08.874Z,72.22
2023-04-13T08:51:15.861Z,72.28
2023-04-13T08:54:23.577Z,72.06
2023-04-13T08:57:29.030Z,71.97
2023-04-13T09:00:34.890Z,71.99
2023-04-13T09:03:44.108Z,71.90
2023-04-13T09:06:57.738Z,72.09
2023-04-13T09:10:05.982Z,72.03
2023-04-13T09:13:13.873Z,71.96
2023-04-13T09:16:21.595Z,71.79
2023-04-13T09:19:31.275Z,71.61
2023-04-13T09:22:38.976Z,71.49
2023-04-13T09:25:46.000Z,71.48
2023-04-13T09:29:02.110Z,71.50
2023-04-13T09:32:08.669Z,71.70
2023-04-13T09:35:20.540Z,71.68
2023-04-13T09:38:26.998Z,71.54
2023-04-13T09:41:52.584Z,71.41
2023-04-13T09:45:12.619Z,71.38
2023-04-13T09:48:20.399Z,71.56
2023-04-13T09:51:30.821Z,71.35
2023-04-13T09:54:37.446Z,71.34
2023-04-13T09:57:46.377Z,71.42
2023-04-13T10:00:55.905Z,71.33
2023-04-13T10:04:03.605Z,71.35
2023-04-13T10:07:13.294Z,71.41
2023-04-13T10:10:21.263Z,71.50
2023-04-13T10:13:36.220Z,71.50
2023-04-13T10:17:21.174Z,71.28
2023-04-13T10:20:28.970Z,71.22
2023-04-13T10:23:36.213Z,71.48
2023-04-13T10:27:03.165Z,71.41
2023-04-13T10:30:12.061Z,71.39
2023-04-13T10:33:20.651Z,71.31
2023-04-13T10:36:25.879Z,71.35
2023-04-13T10:39:39.947Z,71.02
2023-04-13T10:42:55.388Z,71.10
2023-04-13T10:46:03.000Z,71.22
2023-04-13T10:49:12.092Z,70.96
2023-04-13T10:52:18.314Z,71.05
2023-04-13T10:55:25.782Z,71.13
2023-04-13T10:58:33.969Z,71.18
2023-04-13T11:01:41.473Z,71.08
2023-04-13T11:04:47.621Z,70.96
2023-04-13T11:07:55.873Z,70.97
2023-04-13T11:11:14.800Z,71.24
2023-04-13T11:14:22.767Z,71.39
2023-04-13T11:17:32.772Z,71.26
2023-04-13T11:20:49.080Z,70.97
2023-04-13T11:23:57.269Z,70.74
2023-04-13T11:27:04.218Z,70.89
2023-04-13T11:30:19.610Z,70.91
2023-04-13T11:33:27.609Z,70.86
2023-04-13T11:36:33.445Z,70.93
2023-04-13T11:39:40.451Z,70.94
2023-04-13T11:42:46.595Z,70.93
2023-04-13T11:45:55.708Z,70.84
2023-04-13T11:49:01.587Z,71.04
2023-04-13T11:52:08.376Z,71.25
2023-04-13T11:55:23.236Z,71.20
2023-04-13T11:58:25.918Z,71.10
2023-04-13T12:01:34.542Z,71.19
2023-04-13T12:04:39.787Z,71.27
2023-04-13T12:07:46.018Z,71.23
2023-04-13T12:14:10.377Z,71.19
2023-04-13T12:17:34.689Z,71.17
2023-04-13T12:20:23.606Z,71.45
2023-04-13T12:23:40.308Z,71.54
2023-04-13T12:29:58.781Z,71.66
2023-04-13T12:33:09.760Z,71.64
2023-04-13T12:36:17.578Z,71.64
2023-04-13T12:39:23.560Z,71.51
2023-04-13T12:42:28.819Z,71.60
2023-04-13T12:45:34.881Z,71.68
2023-04-13T12:48:39.879Z,71.74
2023-04-13T12:51:47.070Z,71.83
2023-04-13T12:54:54.834Z,71.83
2023-04-13T12:58:03.004Z,71.89
2023-04-13T13:01:09.434Z,71.90
2023-04-13T13:04:17.822Z,71.80
2023-04-13T13:07:24.606Z,71.80
2023-04-13T13:10:30.976Z,71.91
2023-04-13T13:13:37.869Z,71.95
2023-04-13T13:16:44.327Z,71.98
2023-04-13T13:19:51.490Z,72.09
2023-04-13T13:23:00.642Z,72.04
2023-04-13T13:29:14.668Z,71.99
2023-04-13T13:32:21.017Z,72.28
2023-04-13T13:35:26.828Z,72.44
2023-04-13T13:38:35.850Z,72.52
2023-04-13T13:41:43.046Z,72.51
2023-04-13T13:44:50.270Z,72.41
2023-04-13T13:47:56.085Z,72.25
2023-04-13T13:51:07.354Z,72.21
2023-04-13T13:54:17.314Z,72.16
2023-04-13T13:57:23.276Z,72.29
2023-04-13T14:00:30.806Z,72.39
2023-04-13T14:03:38.855Z,72.34
2023-04-13T14:06:47.481Z,72.49
2023-04-13T14:09:52.701Z,72.63
2023-04-13T14:13:02.543Z,72.69
2023-04-13T14:16:09.716Z,72.66
2023-04-13T14:19:15.439Z,72.68
2023-04-13T14:22:21.651Z,72.73
2023-04-13T14:25:28.331Z,72.75
2023-04-13T14:28:33.842Z,72.81
2023-04-13T14:31:39.946Z,72.81
2023-04-13T14:34:47.843Z,72.77
2023-04-13T14:37:54.376Z,72.74
2023-04-13T14:41:01.482Z,72.70
2023-04-13T14:44:06.945Z,72.72
2023-04-13T14:47:14.504Z,72.87
2023-04-13T14:50:22.416Z,72.96
2023-04-13T14:53:28.512Z,72.90
2023-04-13T14:56:35.852Z,72.79
2023-04-13T14:59:41.750Z,72.95
2023-04-13T15:02:47.100Z,72.88
2023-04-13T15:06:02.936Z,73.01
2023-04-13T15:09:07.548Z,73.06
2023-04-13T15:12:14.221Z,72.94
2023-04-13T15:15:22.194Z,72.80
2023-04-13T15:18:27.056Z,72.94
2023-04-13T15:21:32.185Z,73.20
2023-04-13T15:24:38.107Z,73.33
2023-04-13T15:27:43.447Z,73.37
2023-04-13T15:30:51.817Z,73.44
2023-04-13T15:33:56.949Z,73.52
2023-04-13T15:37:06.057Z,73.50
2023-04-13T15:40:14.040Z,73.42
2023-04-13T15:43:20.762Z,73.51
2023-04-13T15:46:25.891Z,73.56
2023-04-13T15:49:33.036Z,73.66
2023-04-13T15:52:39.134Z,73.65
2023-04-13T15:55:44.207Z,73.69
2023-04-13T15:58:50.518Z,73.77
2023-04-13T16:02:01.344Z,73.92
2023-04-13T16:05:07.452Z,74.07
2023-04-13T16:08:16.186Z,74.13
2023-04-13T16:11:22.383Z,74.05
2023-04-13T16:14:27.969Z,74.07
2023-04-13T16:17:40.242Z,74.22
2023-04-13T16:20:46.159Z,74.32
2023-04-13T16:23:52.256Z,74.39
2023-04-13T16:26:59.727Z,74.52
2023-04-13T16:30:05.831Z,74.52
2023-04-13T16:33:13.421Z,74.57
2023-04-13T16:36:19.081Z,74.55
2023-04-13T16:39:25.195Z,74.54
2023-04-13T16:42:31.042Z,74.63
2023-04-13T16:45:36.967Z,74.72
2023-04-13T16:48:44.164Z,74.72
2023-04-13T16:51:50.934Z,74.73
2023-04-13T16:54:59.862Z,74.73
2023-04-13T16:58:06.019Z,74.80
2023-04-13T17:01:12.380Z,74.93
2023-04-13T17:04:18.631Z,74.93
2023-04-13T17:07:26.018Z,74.96
2023-04-13T17:10:31.546Z,75.00
2023-04-13T17:13:37.078Z,75.06
2023-04-13T17:16:43.475Z,75.06
2023-04-13T17:19:49.901Z,75.07
2023-04-13T17:22:58.051Z,75.08
2023-04-13T17:26:07.314Z,75.19
2023-04-13T17:29:13.191Z,75.21
2023-04-13T17:32:22.288Z,75.22
2023-04-13T17:35:29.874Z,75.18
2023-04-13T17:38:35.759Z,75.27
2023-04-13T17:41:42.502Z,75.38
2023-04-13T17:44:49.296Z,75.39
2023-04-13T17:47:55.427Z,75.48
2023-04-13T17:51:02.283Z,75.50
2023-04-13T17:54:07.935Z,75.57
2023-04-13T17:57:16.118Z,75.62
2023-04-13T18:00:26.639Z,75.62
2023-04-13T18:03:35.761Z,75.63
2023-04-13T18:06:44.414Z,75.73
2023-04-13T18:09:53.130Z,75.83
2023-04-13T18:12:59.986Z,75.82
2023-04-13T18:16:05.837Z,75.79
2023-04-13T18:19:13.574Z,75.85
2023-04-13T18:22:20.845Z,75.95
2023-04-13T18:25:27.024Z,75.96
2023-04-13T18:28:37.001Z,75.98
2023-04-13T18:31:43.617Z,76.05
2023-04-13T18:34:50.968Z,76.12
2023-04-13T18:37:57.969Z,76.04
2023-04-13T18:41:05.132Z,76.06
2023-04-13T18:44:12.678Z,76.15
2023-04-13T18:47:20.718Z,76.12
2023-04-13T18:50:27.818Z,76.21
2023-04-13T18:53:35.288Z,76.17
2023-04-13T18:56:40.827Z,76.22
2023-04-13T18:59:46.771Z,76.26
2023-04-13T19:02:55.356Z,76.24
2023-04-13T19:06:04.605Z,76.34
2023-04-13T19:09:11.858Z,76.41
2023-04-13T19:12:20.643Z,76.48
2023-04-13T19:15:26.754Z,76.59
2023-04-13T19:18:33.777Z,76.70
2023-04-13T19:21:40.121Z,76.68
2023-04-13T19:24:46.516Z,76.58
2023-04-13T19:28:01.539Z,76.55
2023-04-13T19:31:08.338Z,76.49
2023-04-13T19:34:15.323Z,76.58
2023-04-13T19:37:23.196Z,76.61
2023-04-13T19:40:31.436Z,76.64
2023-04-13T19:43:39.435Z,76.66
2023-04-13T19:46:45.323Z,76.66
2023-04-13T19:49:51.414Z,76.71
2023-04-13T19:52:59.628Z,76.76
2023-04-13T19:56:06.651Z,76.76
2023-04-13T19:59:13.632Z,76.81
2023-04-13T20:02:19.366Z,76.92
2023-04-13T20:05:25.540Z,76.96
2023-04-13T20:08:31.626Z,77.06
2023-04-13T20:11:37.779Z,77.06
2023-04-13T20:14:44.883Z,77.03
2023-04-13T20:17:51.058Z,77.07
2023-04-13T20:20:58.849Z,77.11
2023-04-13T20:24:06.459Z,77.21
2023-04-13T20:27:16.783Z,77.27
2023-04-13T20:30:24.219Z,77.27
2023-04-13T20:33:32.279Z,77.20
2023-04-13T20:36:39.775Z,77.18
2023-04-13T20:39:49.892Z,77.27
2023-04-13T20:43:00.221Z,77.37
2023-04-13T20:46:07.120Z,77.36
2023-04-13T20:49:13.470Z,77.41
2023-04-13T20:52:20.736Z,77.53
2023-04-13T20:55:29.409Z,77.55
2023-04-13T20:58:40.440Z,77.54
2023-04-13T21:01:46.065Z,77.63
2023-04-13T21:04:54.134Z,77.67
2023-04-13T21:08:00.345Z,77.73
2023-04-13T21:11:08.796Z,77.75
2023-04-13T21:14:14.982Z,77.70
2023-04-13T21:17:21.918Z,77.64
2023-04-13T21:20:29.156Z,77.70
2023-04-13T21:23:35.251Z,77.78
2023-04-13T21:26:41.887Z,77.91
2023-04-13T21:29:49.173Z,77.82
2023-04-13T21:32:55.783Z,77.86
2023-04-13T21:39:11.295Z,78.16
2023-04-13T21:42:20.888Z,78.10
2023-04-13T21:45:26.162Z,78.16
2023-04-13T21:48:32.375Z,78.16
2023-04-13T21:51:38.460Z,78.27
2023-04-13T21:54:45.736Z,78.30
2023-04-13T21:57:52.375Z,78.27
2023-04-13T22:01:01.898Z,78.25
2023-04-13T22:04:03.528Z,78.27
2023-04-13T22:07:10.472Z,78.30
2023-04-13T22:10:18.122Z,78.31
2023-04-13T22:13:23.910Z,78.34
2023-04-13T22:16:31.389Z,78.41
2023-04-13T22:19:38.147Z,78.38
2023-04-13T22:22:44.442Z,78.49
2023-04-13T22:25:51.226Z,78.60
2023-04-13T22:28:57.080Z,78.61
2023-04-13T22:32:03.501Z,78.59
2023-04-13T22:35:09.696Z,78.60
2023-04-13T22:38:17.172Z,78.62
2023-04-13T22:41:25.413Z,78.69
2023-04-13T22:44:30.774Z,78.66
2023-04-13T22:47:37.536Z,78.68
2023-04-13T22:50:44.807Z,78.60
2023-04-13T22:53:52.052Z,78.68
2023-04-13T22:56:57.928Z,78.81
2023-04-13T23:00:04.033Z,78.69
2023-04-13T23:03:11.177Z,78.61
2023-04-13T23:06:21.409Z,78.59
2023-04-13T23:09:28.682Z,78.62
2023-04-13T23:12:34.434Z,78.59
2023-04-13T23:15:41.090Z,78.61
2023-04-13T23:18:48.376Z,78.60
2023-04-13T23:21:48.966Z,78.71
2023-04-13T23:24:55.553Z,78.76
2023-04-13T23:28:01.658Z,78.84
2023-04-13T23:31:20.343Z,78.81
2023-04-13T23:34:27.256Z,78.75
2023-04-13T23:37:32.878Z,78.79
2023-04-13T23:40:38.914Z,78.82
2023-04-13T23:43:45.229Z,78.85
2023-04-13T23:46:49.933Z,78.88
2023-04-13T23:49:55.510Z,78.97
2023-04-13T23:53:02.578Z,79.08
2023-04-13T23:56:09.359Z,79.01
2023-04-13T23:59:16.445Z,79.11
